sensor_id;sensor_type;location;lat;lon;timestamp;P1;durP1;ratioP1;P2;durP2;ratioP2
23406;SDS011;11876;53.438;18.942;2024-01-25T00:02:04;6.30;;;1.77;;
23406;SDS011;11876;53.438;18.942;2024-01-25T00:05:07;5.00;;;1.55;;
23406;SDS011;11876;53.438;18.942;2024-01-25T00:08:10;4.73;;;1.53;;
23406;SDS011;11876;53.438;18.942;2024-01-25T00:11:13;5.22;;;1.35;;
23406;SDS011;11876;53.438;18.942;2024-01-25T00:14:15;6.18;;;1.48;;
23406;SDS011;11876;53.438;18.942;2024-01-25T00:17:17;8.45;;;2.13;;
23406;SDS011;11876;53.438;18.942;2024-01-25T00:20:20;5.28;;;1.70;;
23406;SDS011;11876;53.438;18.942;2024-01-25T00:23:22;3.85;;;1.50;;
23406;SDS011;11876;53.438;18.942;2024-01-25T00:26:25;4.97;;;1.33;;
23406;SDS011;11876;53.438;18.942;2024-01-25T00:29:30;7.93;;;1.60;;
23406;SDS011;11876;53.438;18.942;2024-01-25T00:32:34;7.00;;;1.40;;
23406;SDS011;11876;53.438;18.942;2024-01-25T00:35:40;6.72;;;1.95;;
23406;SDS011;11876;53.438;18.942;2024-01-25T00:38:47;5.18;;;1.17;;
23406;SDS011;11876;53.438;18.942;2024-01-25T00:41:59;4.38;;;1.17;;
23406;SDS011;11876;53.438;18.942;2024-01-25T00:45:12;5.32;;;1.30;;
23406;SDS011;11876;53.438;18.942;2024-01-25T00:48:20;6.32;;;1.65;;
23406;SDS011;11876;53.438;18.942;2024-01-25T00:51:34;5.53;;;1.60;;
23406;SDS011;11876;53.438;18.942;2024-01-25T00:54:45;6.38;;;1.55;;
23406;SDS011;11876;53.438;18.942;2024-01-25T00:57:54;9.68;;;2.08;;
23406;SDS011;11876;53.438;18.942;2024-01-25T01:00:57;7.40;;;1.63;;
23406;SDS011;11876;53.438;18.942;2024-01-25T01:04:00;4.25;;;1.20;;
23406;SDS011;11876;53.438;18.942;2024-01-25T01:07:03;6.68;;;1.60;;
23406;SDS011;11876;53.438;18.942;2024-01-25T01:10:08;5.68;;;1.98;;
23406;SDS011;11876;53.438;18.942;2024-01-25T01:13:14;5.78;;;1.63;;
23406;SDS011;11876;53.438;18.942;2024-01-25T01:16:16;9.35;;;2.00;;
23406;SDS011;11876;53.438;18.942;2024-01-25T01:19:19;10.93;;;1.90;;
23406;SDS011;11876;53.438;18.942;2024-01-25T01:22:21;5.22;;;1.48;;
23406;SDS011;11876;53.438;18.942;2024-01-25T01:25:24;8.95;;;2.22;;
23406;SDS011;11876;53.438;18.942;2024-01-25T01:28:26;7.85;;;2.50;;
23406;SDS011;11876;53.438;18.942;2024-01-25T01:31:28;7.13;;;2.03;;
23406;SDS011;11876;53.438;18.942;2024-01-25T01:34:31;10.55;;;2.35;;
23406;SDS011;11876;53.438;18.942;2024-01-25T01:37:33;7.40;;;1.88;;
23406;SDS011;11876;53.438;18.942;2024-01-25T01:40:36;4.95;;;1.27;;
23406;SDS011;11876;53.438;18.942;2024-01-25T01:43:38;6.40;;;1.90;;
23406;SDS011;11876;53.438;18.942;2024-01-25T01:46:41;10.48;;;2.60;;
23406;SDS011;11876;53.438;18.942;2024-01-25T01:49:44;5.83;;;1.60;;
23406;SDS011;11876;53.438;18.942;2024-01-25T01:52:49;8.63;;;1.98;;
23406;SDS011;11876;53.438;18.942;2024-01-25T01:55:55;9.18;;;2.25;;
23406;SDS011;11876;53.438;18.942;2024-01-25T01:59:01;6.95;;;1.48;;
23406;SDS011;11876;53.438;18.942;2024-01-25T02:02:04;4.93;;;1.67;;
23406;SDS011;11876;53.438;18.942;2024-01-25T02:08:13;3.08;;;1.33;;
23406;SDS011;11876;53.438;18.942;2024-01-25T02:11:17;7.82;;;1.67;;
23406;SDS011;11876;53.438;18.942;2024-01-25T02:14:24;7.47;;;1.70;;
23406;SDS011;11876;53.438;18.942;2024-01-25T02:17:35;5.40;;;1.48;;
23406;SDS011;11876;53.438;18.942;2024-01-25T02:20:46;6.65;;;1.73;;
23406;SDS011;11876;53.438;18.942;2024-01-25T02:23:52;10.02;;;2.10;;
23406;SDS011;11876;53.438;18.942;2024-01-25T02:27:00;10.68;;;2.00;;
23406;SDS011;11876;53.438;18.942;2024-01-25T02:30:14;8.70;;;1.90;;
23406;SDS011;11876;53.438;18.942;2024-01-25T02:33:19;4.68;;;1.40;;
23406;SDS011;11876;53.438;18.942;2024-01-25T02:36:39;8.70;;;2.08;;
23406;SDS011;11876;53.438;18.942;2024-01-25T02:39:46;6.00;;;1.63;;
23406;SDS011;11876;53.438;18.942;2024-01-25T02:42:50;6.82;;;1.27;;
23406;SDS011;11876;53.438;18.942;2024-01-25T02:45:57;3.58;;;1.35;;
23406;SDS011;11876;53.438;18.942;2024-01-25T02:49:02;5.05;;;1.48;;
23406;SDS011;11876;53.438;18.942;2024-01-25T02:52:37;4.80;;;1.48;;
23406;SDS011;11876;53.438;18.942;2024-01-25T02:55:43;7.18;;;1.63;;
23406;SDS011;11876;53.438;18.942;2024-01-25T02:58:51;9.10;;;1.52;;
23406;SDS011;11876;53.438;18.942;2024-01-25T03:05:00;7.63;;;1.60;;
23406;SDS011;11876;53.438;18.942;2024-01-25T03:08:03;6.28;;;1.33;;
23406;SDS011;11876;53.438;18.942;2024-01-25T03:11:05;5.25;;;1.52;;
23406;SDS011;11876;53.438;18.942;2024-01-25T03:14:08;7.07;;;1.60;;
23406;SDS011;11876;53.438;18.942;2024-01-25T03:17:10;8.00;;;1.92;;
23406;SDS011;11876;53.438;18.942;2024-01-25T03:20:14;8.70;;;2.63;;
23406;SDS011;11876;53.438;18.942;2024-01-25T03:23:16;4.60;;;1.33;;
23406;SDS011;11876;53.438;18.942;2024-01-25T03:26:26;7.00;;;1.35;;
23406;SDS011;11876;53.438;18.942;2024-01-25T03:29:33;7.20;;;2.05;;
23406;SDS011;11876;53.438;18.942;2024-01-25T03:32:35;7.82;;;1.40;;
23406;SDS011;11876;53.438;18.942;2024-01-25T03:35:39;6.35;;;1.65;;
23406;SDS011;11876;53.438;18.942;2024-01-25T03:38:42;4.88;;;1.10;;
23406;SDS011;11876;53.438;18.942;2024-01-25T03:41:50;6.28;;;1.50;;
23406;SDS011;11876;53.438;18.942;2024-01-25T03:44:55;4.85;;;1.55;;
23406;SDS011;11876;53.438;18.942;2024-01-25T03:48:01;5.85;;;2.42;;
23406;SDS011;11876;53.438;18.942;2024-01-25T03:51:08;4.78;;;1.25;;
23406;SDS011;11876;53.438;18.942;2024-01-25T03:54:16;5.38;;;1.65;;
23406;SDS011;11876;53.438;18.942;2024-01-25T03:57:18;7.18;;;1.08;;
23406;SDS011;11876;53.438;18.942;2024-01-25T04:00:21;4.60;;;1.30;;
23406;SDS011;11876;53.438;18.942;2024-01-25T04:03:24;5.18;;;1.40;;
23406;SDS011;11876;53.438;18.942;2024-01-25T04:06:26;4.95;;;1.00;;
23406;SDS011;11876;53.438;18.942;2024-01-25T04:09:29;4.78;;;1.42;;
23406;SDS011;11876;53.438;18.942;2024-01-25T04:12:31;4.72;;;1.50;;
23406;SDS011;11876;53.438;18.942;2024-01-25T04:15:34;4.27;;;1.33;;
23406;SDS011;11876;53.438;18.942;2024-01-25T04:18:37;5.85;;;1.10;;
23406;SDS011;11876;53.438;18.942;2024-01-25T04:21:40;3.20;;;1.08;;
23406;SDS011;11876;53.438;18.942;2024-01-25T04:24:42;6.47;;;1.85;;
23406;SDS011;11876;53.438;18.942;2024-01-25T04:27:45;12.77;;;1.95;;
23406;SDS011;11876;53.438;18.942;2024-01-25T04:30:48;6.03;;;1.20;;
23406;SDS011;11876;53.438;18.942;2024-01-25T04:33:50;6.55;;;1.50;;
23406;SDS011;11876;53.438;18.942;2024-01-25T04:36:53;4.72;;;1.30;;
23406;SDS011;11876;53.438;18.942;2024-01-25T04:39:55;4.05;;;1.20;;
23406;SDS011;11876;53.438;18.942;2024-01-25T04:42:58;12.13;;;2.17;;
23406;SDS011;11876;53.438;18.942;2024-01-25T04:46:00;5.18;;;1.27;;
23406;SDS011;11876;53.438;18.942;2024-01-25T04:49:03;5.00;;;1.20;;
23406;SDS011;11876;53.438;18.942;2024-01-25T04:52:08;3.58;;;1.00;;
23406;SDS011;11876;53.438;18.942;2024-01-25T04:55:19;8.60;;;1.38;;
23406;SDS011;11876;53.438;18.942;2024-01-25T04:58:26;9.45;;;1.60;;
23406;SDS011;11876;53.438;18.942;2024-01-25T05:01:28;5.32;;;1.50;;
23406;SDS011;11876;53.438;18.942;2024-01-25T05:04:32;5.30;;;1.30;;
23406;SDS011;11876;53.438;18.942;2024-01-25T05:07:48;7.57;;;1.65;;
23406;SDS011;11876;53.438;18.942;2024-01-25T05:11:08;5.53;;;1.63;;
23406;SDS011;11876;53.438;18.942;2024-01-25T05:14:12;6.50;;;1.67;;
23406;SDS011;11876;53.438;18.942;2024-01-25T05:17:20;3.80;;;0.90;;
23406;SDS011;11876;53.438;18.942;2024-01-25T05:20:25;3.90;;;1.30;;
23406;SDS011;11876;53.438;18.942;2024-01-25T05:23:36;3.72;;;1.17;;
23406;SDS011;11876;53.438;18.942;2024-01-25T05:26:44;3.08;;;0.85;;
23406;SDS011;11876;53.438;18.942;2024-01-25T05:29:51;7.80;;;1.10;;
23406;SDS011;11876;53.438;18.942;2024-01-25T05:32:58;5.10;;;1.33;;
23406;SDS011;11876;53.438;18.942;2024-01-25T05:36:04;6.55;;;1.40;;
23406;SDS011;11876;53.438;18.942;2024-01-25T05:39:10;4.22;;;1.00;;
23406;SDS011;11876;53.438;18.942;2024-01-25T05:42:25;5.68;;;0.98;;
23406;SDS011;11876;53.438;18.942;2024-01-25T05:45:43;3.50;;;1.35;;
23406;SDS011;11876;53.438;18.942;2024-01-25T05:48:57;5.13;;;1.00;;
23406;SDS011;11876;53.438;18.942;2024-01-25T05:52:02;3.92;;;0.90;;
23406;SDS011;11876;53.438;18.942;2024-01-25T05:55:10;3.30;;;1.00;;
23406;SDS011;11876;53.438;18.942;2024-01-25T05:58:12;3.00;;;1.10;;
23406;SDS011;11876;53.438;18.942;2024-01-25T06:01:17;2.92;;;0.95;;
23406;SDS011;11876;53.438;18.942;2024-01-25T06:04:22;3.03;;;0.80;;
23406;SDS011;11876;53.438;18.942;2024-01-25T06:07:35;2.40;;;0.68;;
23406;SDS011;11876;53.438;18.942;2024-01-25T06:10:38;1.88;;;0.60;;
23406;SDS011;11876;53.438;18.942;2024-01-25T06:13:41;3.38;;;0.77;;
23406;SDS011;11876;53.438;18.942;2024-01-25T06:16:44;4.22;;;0.75;;
23406;SDS011;11876;53.438;18.942;2024-01-25T06:19:46;3.75;;;0.95;;
23406;SDS011;11876;53.438;18.942;2024-01-25T06:22:49;3.20;;;0.60;;
23406;SDS011;11876;53.438;18.942;2024-01-25T06:25:52;3.17;;;0.70;;
23406;SDS011;11876;53.438;18.942;2024-01-25T06:28:54;1.58;;;0.80;;
23406;SDS011;11876;53.438;18.942;2024-01-25T06:31:56;2.92;;;0.90;;
23406;SDS011;11876;53.438;18.942;2024-01-25T06:35:02;3.05;;;1.15;;
23406;SDS011;11876;53.438;18.942;2024-01-25T06:38:16;1.60;;;0.75;;
23406;SDS011;11876;53.438;18.942;2024-01-25T06:41:20;1.90;;;0.90;;
23406;SDS011;11876;53.438;18.942;2024-01-25T06:44:22;3.30;;;0.85;;
23406;SDS011;11876;53.438;18.942;2024-01-25T06:47:29;1.20;;;0.70;;
23406;SDS011;11876;53.438;18.942;2024-01-25T06:50:41;5.93;;;1.15;;
23406;SDS011;11876;53.438;18.942;2024-01-25T06:53:53;1.30;;;0.90;;
23406;SDS011;11876;53.438;18.942;2024-01-25T06:56:59;1.83;;;0.93;;
23406;SDS011;11876;53.438;18.942;2024-01-25T07:00:07;3.92;;;1.02;;
23406;SDS011;11876;53.438;18.942;2024-01-25T07:03:13;1.52;;;0.80;;
23406;SDS011;11876;53.438;18.942;2024-01-25T07:09:20;3.85;;;1.20;;
23406;SDS011;11876;53.438;18.942;2024-01-25T07:12:22;4.30;;;1.27;;
23406;SDS011;11876;53.438;18.942;2024-01-25T07:15:24;1.85;;;0.82;;
23406;SDS011;11876;53.438;18.942;2024-01-25T07:18:33;1.38;;;0.75;;
23406;SDS011;11876;53.438;18.942;2024-01-25T07:21:40;2.47;;;1.00;;
23406;SDS011;11876;53.438;18.942;2024-01-25T07:24:52;1.63;;;0.85;;
23406;SDS011;11876;53.438;18.942;2024-01-25T07:27:56;4.07;;;1.20;;
23406;SDS011;11876;53.438;18.942;2024-01-25T07:31:00;3.28;;;1.55;;
23406;SDS011;11876;53.438;18.942;2024-01-25T07:34:05;2.50;;;1.00;;
23406;SDS011;11876;53.438;18.942;2024-01-25T07:37:10;6.07;;;2.45;;
23406;SDS011;11876;53.438;18.942;2024-01-25T07:40:17;4.07;;;1.48;;
23406;SDS011;11876;53.438;18.942;2024-01-25T07:43:20;3.47;;;1.25;;
23406;SDS011;11876;53.438;18.942;2024-01-25T07:46:40;2.25;;;1.45;;
23406;SDS011;11876;53.438;18.942;2024-01-25T07:49:44;5.05;;;1.30;;
23406;SDS011;11876;53.438;18.942;2024-01-25T07:52:55;2.22;;;1.25;;
23406;SDS011;11876;53.438;18.942;2024-01-25T07:56:07;3.95;;;1.30;;
23406;SDS011;11876;53.438;18.942;2024-01-25T07:59:13;2.83;;;1.40;;
23406;SDS011;11876;53.438;18.942;2024-01-25T08:02:19;4.28;;;1.92;;
23406;SDS011;11876;53.438;18.942;2024-01-25T08:05:25;5.13;;;1.63;;
23406;SDS011;11876;53.438;18.942;2024-01-25T08:08:41;2.95;;;1.05;;
23406;SDS011;11876;53.438;18.942;2024-01-25T08:11:45;4.45;;;1.25;;
23406;SDS011;11876;53.438;18.942;2024-01-25T08:14:52;4.60;;;1.52;;
23406;SDS011;11876;53.438;18.942;2024-01-25T08:18:15;4.57;;;1.73;;
23406;SDS011;11876;53.438;18.942;2024-01-25T08:21:19;4.80;;;1.55;;
23406;SDS011;11876;53.438;18.942;2024-01-25T08:24:25;9.15;;;2.35;;
23406;SDS011;11876;53.438;18.942;2024-01-25T08:27:28;7.70;;;3.05;;
23406;SDS011;11876;53.438;18.942;2024-01-25T08:30:38;3.72;;;1.13;;
23406;SDS011;11876;53.438;18.942;2024-01-25T08:33:46;4.13;;;1.52;;
23406;SDS011;11876;53.438;18.942;2024-01-25T08:36:55;5.63;;;2.40;;
23406;SDS011;11876;53.438;18.942;2024-01-25T08:40:03;8.43;;;2.15;;
23406;SDS011;11876;53.438;18.942;2024-01-25T08:43:15;25.97;;;14.27;;
23406;SDS011;11876;53.438;18.942;2024-01-25T08:46:33;12.68;;;8.35;;
23406;SDS011;11876;53.438;18.942;2024-01-25T08:49:44;15.68;;;9.05;;
23406;SDS011;11876;53.438;18.942;2024-01-25T08:52:58;26.27;;;19.25;;
23406;SDS011;11876;53.438;18.942;2024-01-25T08:56:04;12.05;;;7.03;;
23406;SDS011;11876;53.438;18.942;2024-01-25T08:59:08;13.23;;;4.80;;
23406;SDS011;11876;53.438;18.942;2024-01-25T09:02:12;12.35;;;4.05;;
23406;SDS011;11876;53.438;18.942;2024-01-25T09:05:17;13.95;;;7.28;;
23406;SDS011;11876;53.438;18.942;2024-01-25T09:08:20;4.55;;;1.70;;
23406;SDS011;11876;53.438;18.942;2024-01-25T09:11:23;5.43;;;1.48;;
23406;SDS011;11876;53.438;18.942;2024-01-25T09:14:26;6.40;;;1.70;;
23406;SDS011;11876;53.438;18.942;2024-01-25T09:17:42;12.50;;;5.10;;
23406;SDS011;11876;53.438;18.942;2024-01-25T09:20:51;7.32;;;3.53;;
23406;SDS011;11876;53.438;18.942;2024-01-25T09:23:58;7.47;;;2.00;;
23406;SDS011;11876;53.438;18.942;2024-01-25T09:27:04;8.52;;;4.28;;
23406;SDS011;11876;53.438;18.942;2024-01-25T09:30:12;5.13;;;1.75;;
23406;SDS011;11876;53.438;18.942;2024-01-25T09:33:20;3.83;;;1.40;;
23406;SDS011;11876;53.438;18.942;2024-01-25T09:36:27;4.25;;;1.40;;
23406;SDS011;11876;53.438;18.942;2024-01-25T09:39:45;8.25;;;1.70;;
23406;SDS011;11876;53.438;18.942;2024-01-25T09:42:52;4.78;;;1.75;;
23406;SDS011;11876;53.438;18.942;2024-01-25T09:46:08;6.93;;;2.75;;
23406;SDS011;11876;53.438;18.942;2024-01-25T09:49:22;7.63;;;3.38;;
23406;SDS011;11876;53.438;18.942;2024-01-25T09:52:26;8.00;;;3.22;;
23406;SDS011;11876;53.438;18.942;2024-01-25T09:55:35;4.28;;;1.70;;
23406;SDS011;11876;53.438;18.942;2024-01-25T09:58:41;3.25;;;0.90;;
23406;SDS011;11876;53.438;18.942;2024-01-25T10:01:44;1.30;;;0.73;;
23406;SDS011;11876;53.438;18.942;2024-01-25T10:04:51;1.98;;;0.82;;
23406;SDS011;11876;53.438;18.942;2024-01-25T10:07:54;2.17;;;1.23;;
23406;SDS011;11876;53.438;18.942;2024-01-25T10:14:18;1.75;;;1.52;;
23406;SDS011;11876;53.438;18.942;2024-01-25T10:17:21;2.35;;;1.88;;
23406;SDS011;11876;53.438;18.942;2024-01-25T10:24:09;3.08;;;2.00;;
23406;SDS011;11876;53.438;18.942;2024-01-25T10:27:31;2.60;;;2.20;;
23406;SDS011;11876;53.438;18.942;2024-01-25T10:30:41;2.63;;;2.30;;
23406;SDS011;11876;53.438;18.942;2024-01-25T10:34:00;2.83;;;2.58;;
23406;SDS011;11876;53.438;18.942;2024-01-25T10:37:13;3.67;;;3.15;;
23406;SDS011;11876;53.438;18.942;2024-01-25T10:40:22;4.13;;;3.45;;
23406;SDS011;11876;53.438;18.942;2024-01-25T10:43:32;6.03;;;4.07;;
23406;SDS011;11876;53.438;18.942;2024-01-25T10:46:39;7.65;;;5.25;;
23406;SDS011;11876;53.438;18.942;2024-01-25T10:49:43;5.45;;;4.82;;
23406;SDS011;11876;53.438;18.942;2024-01-25T10:52:52;5.78;;;4.68;;
23406;SDS011;11876;53.438;18.942;2024-01-25T10:56:08;4.68;;;3.88;;
23406;SDS011;11876;53.438;18.942;2024-01-25T10:59:15;8.65;;;4.43;;
23406;SDS011;11876;53.438;18.942;2024-01-25T11:02:23;4.55;;;3.70;;
23406;SDS011;11876;53.438;18.942;2024-01-25T11:05:35;5.32;;;3.80;;
23406;SDS011;11876;53.438;18.942;2024-01-25T11:08:54;4.68;;;3.38;;
23406;SDS011;11876;53.438;18.942;2024-01-25T11:12:17;5.28;;;4.03;;
23406;SDS011;11876;53.438;18.942;2024-01-25T11:15:22;5.40;;;4.28;;
23406;SDS011;11876;53.438;18.942;2024-01-25T11:18:50;5.15;;;3.38;;
23406;SDS011;11876;53.438;18.942;2024-01-25T11:22:14;5.35;;;3.40;;
23406;SDS011;11876;53.438;18.942;2024-01-25T11:25:36;6.95;;;4.75;;
23406;SDS011;11876;53.438;18.942;2024-01-25T11:28:44;6.05;;;4.40;;
23406;SDS011;11876;53.438;18.942;2024-01-25T11:31:50;6.50;;;5.00;;
23406;SDS011;11876;53.438;18.942;2024-01-25T11:35:00;4.85;;;4.20;;
23406;SDS011;11876;53.438;18.942;2024-01-25T11:38:21;4.75;;;2.70;;
23406;SDS011;11876;53.438;18.942;2024-01-25T11:41:32;5.15;;;2.95;;
23406;SDS011;11876;53.438;18.942;2024-01-25T11:44:38;3.90;;;2.38;;
23406;SDS011;11876;53.438;18.942;2024-01-25T11:47:43;2.80;;;1.75;;
23406;SDS011;11876;53.438;18.942;2024-01-25T11:50:59;2.83;;;1.73;;
23406;SDS011;11876;53.438;18.942;2024-01-25T11:54:04;3.67;;;1.90;;
23406;SDS011;11876;53.438;18.942;2024-01-25T11:57:13;2.33;;;1.58;;
23406;SDS011;11876;53.438;18.942;2024-01-25T12:00:17;4.25;;;1.88;;
23406;SDS011;11876;53.438;18.942;2024-01-25T12:03:25;2.58;;;1.80;;
23406;SDS011;11876;53.438;18.942;2024-01-25T12:06:45;3.35;;;1.77;;
23406;SDS011;11876;53.438;18.942;2024-01-25T12:10:04;4.25;;;3.10;;
23406;SDS011;11876;53.438;18.942;2024-01-25T12:13:19;2.90;;;2.30;;
23406;SDS011;11876;53.438;18.942;2024-01-25T12:16:26;6.85;;;3.28;;
23406;SDS011;11876;53.438;18.942;2024-01-25T12:19:39;3.00;;;2.30;;
23406;SDS011;11876;53.438;18.942;2024-01-25T12:22:51;3.63;;;2.60;;
23406;SDS011;11876;53.438;18.942;2024-01-25T12:26:07;3.38;;;2.63;;
23406;SDS011;11876;53.438;18.942;2024-01-25T12:29:14;2.75;;;2.10;;
23406;SDS011;11876;53.438;18.942;2024-01-25T12:32:37;4.28;;;2.53;;
23406;SDS011;11876;53.438;18.942;2024-01-25T12:35:45;5.30;;;2.65;;
23406;SDS011;11876;53.438;18.942;2024-01-25T12:38:49;6.60;;;2.70;;
23406;SDS011;11876;53.438;18.942;2024-01-25T12:45:00;2.65;;;1.88;;
23406;SDS011;11876;53.438;18.942;2024-01-25T12:48:06;2.28;;;1.80;;
23406;SDS011;11876;53.438;18.942;2024-01-25T12:51:14;3.05;;;1.95;;
23406;SDS011;11876;53.438;18.942;2024-01-25T12:54:18;1.88;;;1.65;;
23406;SDS011;11876;53.438;18.942;2024-01-25T13:00:40;5.72;;;2.20;;
23406;SDS011;11876;53.438;18.942;2024-01-25T13:03:50;3.17;;;2.13;;
23406;SDS011;11876;53.438;18.942;2024-01-25T13:07:01;3.55;;;2.30;;
23406;SDS011;11876;53.438;18.942;2024-01-25T13:10:30;3.53;;;2.08;;
23406;SDS011;11876;53.438;18.942;2024-01-25T13:13:40;5.40;;;2.20;;
23406;SDS011;11876;53.438;18.942;2024-01-25T13:16:55;3.63;;;2.00;;
23406;SDS011;11876;53.438;18.942;2024-01-25T13:20:00;3.00;;;1.90;;
23406;SDS011;11876;53.438;18.942;2024-01-25T13:23:10;4.10;;;2.00;;
23406;SDS011;11876;53.438;18.942;2024-01-25T13:26:21;4.30;;;2.55;;
23406;SDS011;11876;53.438;18.942;2024-01-25T13:29:25;2.70;;;1.95;;
23406;SDS011;11876;53.438;18.942;2024-01-25T13:32:30;5.38;;;2.22;;
23406;SDS011;11876;53.438;18.942;2024-01-25T13:35:38;6.63;;;3.00;;
23406;SDS011;11876;53.438;18.942;2024-01-25T13:38:42;2.95;;;2.20;;
23406;SDS011;11876;53.438;18.942;2024-01-25T13:41:52;3.10;;;2.63;;
23406;SDS011;11876;53.438;18.942;2024-01-25T13:45:02;5.57;;;2.80;;
23406;SDS011;11876;53.438;18.942;2024-01-25T13:48:10;4.70;;;3.30;;
23406;SDS011;11876;53.438;18.942;2024-01-25T13:51:16;4.10;;;2.47;;
23406;SDS011;11876;53.438;18.942;2024-01-25T13:54:27;3.63;;;2.42;;
23406;SDS011;11876;53.438;18.942;2024-01-25T13:57:33;4.05;;;2.20;;
23406;SDS011;11876;53.438;18.942;2024-01-25T14:00:40;2.05;;;1.67;;
23406;SDS011;11876;53.438;18.942;2024-01-25T14:03:49;3.80;;;2.22;;
23406;SDS011;11876;53.438;18.942;2024-01-25T14:06:55;4.63;;;1.95;;
23406;SDS011;11876;53.438;18.942;2024-01-25T14:10:03;2.03;;;1.20;;
23406;SDS011;11876;53.438;18.942;2024-01-25T14:13:07;2.92;;;2.03;;
23406;SDS011;11876;53.438;18.942;2024-01-25T14:16:15;2.35;;;1.70;;
23406;SDS011;11876;53.438;18.942;2024-01-25T14:19:27;3.28;;;1.90;;
23406;SDS011;11876;53.438;18.942;2024-01-25T14:22:34;3.45;;;1.58;;
23406;SDS011;11876;53.438;18.942;2024-01-25T14:25:39;1.95;;;1.70;;
23406;SDS011;11876;53.438;18.942;2024-01-25T14:28:43;4.00;;;1.80;;
23406;SDS011;11876;53.438;18.942;2024-01-25T14:31:48;2.97;;;1.92;;
23406;SDS011;11876;53.438;18.942;2024-01-25T14:34:54;3.60;;;1.83;;
23406;SDS011;11876;53.438;18.942;2024-01-25T14:38:02;4.13;;;2.45;;
23406;SDS011;11876;53.438;18.942;2024-01-25T14:41:13;5.03;;;2.58;;
23406;SDS011;11876;53.438;18.942;2024-01-25T14:44:30;6.50;;;2.80;;
23406;SDS011;11876;53.438;18.942;2024-01-25T14:47:35;4.95;;;3.35;;
23406;SDS011;11876;53.438;18.942;2024-01-25T14:50:40;2.97;;;2.30;;
23406;SDS011;11876;53.438;18.942;2024-01-25T14:53:46;2.70;;;2.17;;
23406;SDS011;11876;53.438;18.942;2024-01-25T14:56:52;3.83;;;2.25;;
23406;SDS011;11876;53.438;18.942;2024-01-25T14:59:55;2.35;;;1.60;;
23406;SDS011;11876;53.438;18.942;2024-01-25T15:03:04;2.20;;;1.85;;
23406;SDS011;11876;53.438;18.942;2024-01-25T15:06:16;4.88;;;2.00;;
23406;SDS011;11876;53.438;18.942;2024-01-25T15:09:23;3.60;;;1.80;;
23406;SDS011;11876;53.438;18.942;2024-01-25T15:12:37;2.08;;;1.65;;
23406;SDS011;11876;53.438;18.942;2024-01-25T15:15:45;3.65;;;1.88;;
23406;SDS011;11876;53.438;18.942;2024-01-25T15:18:55;2.22;;;1.80;;
23406;SDS011;11876;53.438;18.942;2024-01-25T15:21:59;2.22;;;1.70;;
23406;SDS011;11876;53.438;18.942;2024-01-25T15:25:05;2.75;;;1.20;;
23406;SDS011;11876;53.438;18.942;2024-01-25T15:28:10;2.90;;;2.15;;
23406;SDS011;11876;53.438;18.942;2024-01-25T15:31:22;4.47;;;1.77;;
23406;SDS011;11876;53.438;18.942;2024-01-25T15:34:29;4.57;;;2.05;;
23406;SDS011;11876;53.438;18.942;2024-01-25T15:37:34;3.60;;;2.05;;
23406;SDS011;11876;53.438;18.942;2024-01-25T15:40:42;3.03;;;2.03;;
23406;SDS011;11876;53.438;18.942;2024-01-25T15:43:51;3.65;;;2.35;;
23406;SDS011;11876;53.438;18.942;2024-01-25T15:47:21;4.22;;;2.42;;
23406;SDS011;11876;53.438;18.942;2024-01-25T15:50:27;4.28;;;2.67;;
23406;SDS011;11876;53.438;18.942;2024-01-25T15:53:40;8.38;;;2.65;;
23406;SDS011;11876;53.438;18.942;2024-01-25T15:57:01;5.95;;;2.55;;
23406;SDS011;11876;53.438;18.942;2024-01-25T16:00:29;3.95;;;2.70;;
23406;SDS011;11876;53.438;18.942;2024-01-25T16:03:34;4.18;;;2.50;;
23406;SDS011;11876;53.438;18.942;2024-01-25T16:06:43;3.47;;;2.47;;
23406;SDS011;11876;53.438;18.942;2024-01-25T16:09:53;3.85;;;2.55;;
23406;SDS011;11876;53.438;18.942;2024-01-25T16:13:02;3.22;;;2.20;;
23406;SDS011;11876;53.438;18.942;2024-01-25T16:16:07;4.10;;;2.70;;
23406;SDS011;11876;53.438;18.942;2024-01-25T16:19:14;4.40;;;2.63;;
23406;SDS011;11876;53.438;18.942;2024-01-25T16:22:23;4.00;;;2.72;;
23406;SDS011;11876;53.438;18.942;2024-01-25T16:25:28;10.32;;;3.90;;
23406;SDS011;11876;53.438;18.942;2024-01-25T16:28:31;4.63;;;3.35;;
23406;SDS011;11876;53.438;18.942;2024-01-25T16:31:38;5.32;;;3.15;;
23406;SDS011;11876;53.438;18.942;2024-01-25T16:34:41;4.78;;;2.88;;
23406;SDS011;11876;53.438;18.942;2024-01-25T16:37:46;7.35;;;3.30;;
23406;SDS011;11876;53.438;18.942;2024-01-25T16:40:49;5.68;;;3.60;;
23406;SDS011;11876;53.438;18.942;2024-01-25T16:43:57;4.15;;;2.97;;
23406;SDS011;11876;53.438;18.942;2024-01-25T16:47:05;3.50;;;2.53;;
23406;SDS011;11876;53.438;18.942;2024-01-25T16:50:21;4.65;;;2.72;;
23406;SDS011;11876;53.438;18.942;2024-01-25T16:53:30;3.35;;;2.45;;
23406;SDS011;11876;53.438;18.942;2024-01-25T16:56:45;4.28;;;2.45;;
23406;SDS011;11876;53.438;18.942;2024-01-25T16:59:49;3.25;;;2.25;;
23406;SDS011;11876;53.438;18.942;2024-01-25T17:02:56;4.05;;;2.80;;
23406;SDS011;11876;53.438;18.942;2024-01-25T17:06:12;7.13;;;3.80;;
23406;SDS011;11876;53.438;18.942;2024-01-25T17:09:19;6.93;;;3.63;;
23406;SDS011;11876;53.438;18.942;2024-01-25T17:12:23;5.78;;;3.63;;
23406;SDS011;11876;53.438;18.942;2024-01-25T17:18:34;5.78;;;3.10;;
23406;SDS011;11876;53.438;18.942;2024-01-25T17:21:40;6.47;;;4.22;;
23406;SDS011;11876;53.438;18.942;2024-01-25T17:24:45;6.88;;;3.80;;
23406;SDS011;11876;53.438;18.942;2024-01-25T17:27:53;4.55;;;3.03;;
23406;SDS011;11876;53.438;18.942;2024-01-25T17:31:01;3.70;;;2.95;;
23406;SDS011;11876;53.438;18.942;2024-01-25T17:34:22;4.20;;;2.35;;
23406;SDS011;11876;53.438;18.942;2024-01-25T17:37:28;6.78;;;4.32;;
23406;SDS011;11876;53.438;18.942;2024-01-25T17:40:39;3.17;;;2.55;;
23406;SDS011;11876;53.438;18.942;2024-01-25T17:43:44;4.70;;;2.95;;
23406;SDS011;11876;53.438;18.942;2024-01-25T17:46:56;4.13;;;3.28;;
23406;SDS011;11876;53.438;18.942;2024-01-25T17:50:03;5.03;;;2.80;;
23406;SDS011;11876;53.438;18.942;2024-01-25T17:53:07;4.63;;;3.00;;
23406;SDS011;11876;53.438;18.942;2024-01-25T17:56:22;5.28;;;3.25;;
23406;SDS011;11876;53.438;18.942;2024-01-25T17:59:26;5.03;;;2.35;;
23406;SDS011;11876;53.438;18.942;2024-01-25T18:02:33;4.95;;;2.40;;
23406;SDS011;11876;53.438;18.942;2024-01-25T18:05:43;5.88;;;2.28;;
23406;SDS011;11876;53.438;18.942;2024-01-25T18:08:46;4.35;;;2.50;;
23406;SDS011;11876;53.438;18.942;2024-01-25T18:11:49;4.20;;;2.28;;
23406;SDS011;11876;53.438;18.942;2024-01-25T18:14:55;3.38;;;2.25;;
23406;SDS011;11876;53.438;18.942;2024-01-25T18:18:00;3.35;;;2.10;;
23406;SDS011;11876;53.438;18.942;2024-01-25T18:21:11;3.50;;;2.08;;
23406;SDS011;11876;53.438;18.942;2024-01-25T18:24:16;3.88;;;1.85;;
23406;SDS011;11876;53.438;18.942;2024-01-25T18:27:21;5.93;;;1.98;;
23406;SDS011;11876;53.438;18.942;2024-01-25T18:30:26;4.47;;;2.30;;
23406;SDS011;11876;53.438;18.942;2024-01-25T18:33:33;5.22;;;2.53;;
23406;SDS011;11876;53.438;18.942;2024-01-25T18:36:42;7.10;;;2.90;;
23406;SDS011;11876;53.438;18.942;2024-01-25T18:40:04;5.70;;;2.78;;
23406;SDS011;11876;53.438;18.942;2024-01-25T18:43:10;6.97;;;3.08;;
23406;SDS011;11876;53.438;18.942;2024-01-25T18:46:25;3.70;;;2.17;;
23406;SDS011;11876;53.438;18.942;2024-01-25T18:49:34;2.90;;;2.22;;
23406;SDS011;11876;53.438;18.942;2024-01-25T18:52:45;3.38;;;2.08;;
23406;SDS011;11876;53.438;18.942;2024-01-25T18:55:56;4.57;;;2.17;;
23406;SDS011;11876;53.438;18.942;2024-01-25T18:59:10;4.93;;;2.40;;